METAR Data
IDs: Format: Raw Decoded Include TAF

Data at: 0802 UTC 23 Sep 2018

KOEB 230755Z AUTO 00000KT 10SM CLR 08/08 A3020 RMK AO2 T00810081
KOEB 230735Z AUTO 00000KT 10SM CLR 08/08 A3019 RMK AO2 T00800080
KOEB 230715Z AUTO 00000KT 10SM CLR 08/08 A3019 RMK AO2 T00760076
KOEB 230655Z AUTO 00000KT 7SM CLR 08/08 A3020 RMK AO2 T00770077
KOEB 230635Z AUTO 00000KT 10SM CLR 08/08 A3021 RMK AO2 T00830083
KOEB 230615Z AUTO 00000KT 10SM CLR 09/09 A3021 RMK AO2 T00860086
KOEB 230555Z AUTO 00000KT 10SM CLR 08/08 A3021 RMK AO2 T00840084 10129 20083 401630083
KOEB 230535Z AUTO 00000KT 10SM CLR 08/08 A3021 RMK AO2 T00830083
KOEB 230515Z AUTO 00000KT 10SM CLR 09/09 A3022 RMK AO2 T00850085
KOEB 230455Z AUTO 00000KT 10SM CLR 09/09 A3022 RMK AO2 T00850085
KOEB 230435Z AUTO 00000KT 10SM CLR 09/09 A3023 RMK AO2 T00870087
KOEB 230415Z AUTO 00000KT 10SM CLR 09/09 A3023 RMK AO2 T00900090
KOEB 230355Z AUTO 00000KT 10SM CLR 09/09 A3023 RMK AO2 T00920089
KOEB 230335Z AUTO 00000KT 10SM CLR 10/09 A3023 RMK AO2 T00950093
KOEB 230315Z AUTO 00000KT 10SM CLR 09/09 A3024 RMK AO2 T00900089
KOEB 230255Z AUTO 00000KT 10SM CLR 10/09 A3024 RMK AO2 T00950093
KOEB 230235Z AUTO 00000KT 10SM CLR 10/10 A3024 RMK AO2 T00970096
KOEB 230215Z AUTO 00000KT 10SM CLR 10/10 A3024 RMK AO2 T00970096
KOEB 230155Z AUTO 00000KT 10SM CLR 10/10 A3024 RMK AO2 T01000097
KOEB 230135Z AUTO 00000KT 10SM CLR 10/10 A3024 RMK AO2 T01020096
KOEB 230115Z AUTO 00000KT 10SM CLR 12/10 A3024 RMK AO2 T01150095
KOEB 230055Z AUTO 00000KT 10SM CLR 11/10 A3023 RMK AO2 T01100098
KOEB 230035Z AUTO 00000KT 10SM CLR 11/09 A3023 RMK AO2 T01110091
KOEB 230015Z AUTO 00000KT 10SM CLR 12/08 A3023 RMK AO2 T01230083
KOEB 222355Z AUTO 09003KT 10SM CLR 13/08 A3023 RMK AO2 T01330078 10163 20133
KOEB 222335Z AUTO 00000KT 10SM CLR 14/07 A3024 RMK AO2 T01410069
KOEB 222315Z AUTO 10003KT 10SM CLR 15/08 A3024 RMK AO2 T01450075
KOEB 222255Z AUTO 00000KT 10SM CLR 15/08 A3024 RMK AO2 T01510076
KOEB 222235Z AUTO 10005KT 10SM CLR 16/07 A3024 RMK AO2 T01550065
KOEB 222215Z AUTO 00000KT 10SM CLR 16/06 A3024 RMK AO2 T01600064
KOEB 222155Z AUTO 09004KT 10SM CLR 16/07 A3025 RMK AO2 T01550067
KOEB 222135Z AUTO 08003KT 10SM CLR 16/07 A3025 RMK AO2 T01570065
KOEB 222115Z AUTO 00000KT 10SM SCT033 16/06 A3025 RMK AO2 T01570063
KOEB 222055Z AUTO 16004KT 10SM SCT033 16/06 A3026 RMK AO2 T01550059
KOEB 222035Z AUTO 13003KT 10SM SCT033 16/06 A3025 RMK AO2 T01580061
KOEB 222015Z AUTO 10005KT 10SM SCT033 16/06 A3026 RMK AO2 T01560060
KOEB 221955Z AUTO 09006KT 10SM SCT033 16/06 A3027 RMK AO2 T01570064
KOEB 221935Z AUTO 10006KT 10SM SCT033 16/06 A3028 RMK AO2 T01580059
KOEB 221915Z AUTO 13003KT 10SM CLR 16/06 A3028 RMK AO2 T01570063
KOEB 221855Z AUTO 12007KT 10SM SCT031 16/06 A3029 RMK AO2 T01550059
KOEB 221835Z AUTO 08003KT 10SM SCT031 15/06 A3030 RMK AO2 T01530062
KOEB 221815Z AUTO 11006KT 10SM SCT031 15/06 A3030 RMK AO2 T01520060
KOEB 221755Z AUTO 13006KT 10SM SCT029 15/06 A3031 RMK AO2 T01490060 10152 20102
KOEB 221735Z AUTO 13005KT 10SM BKN029 15/06 A3032 RMK AO2 T01480059
KOEB 221715Z AUTO 10005KT 10SM SCT029 15/06 A3032 RMK AO2 T01470058
KOEB 221655Z AUTO 11006KT 10SM BKN029 15/06 A3032 RMK AO2 T01500059
KOEB 221635Z AUTO 08006KT 10SM SCT029 14/06 A3033 RMK AO2 T01370055
KOEB 221615Z AUTO 09006KT 10SM CLR 14/06 A3033 RMK AO2 T01380056
KOEB 221555Z AUTO 06008KT 10SM CLR 14/06 A3033 RMK AO2 T01350055
KOEB 221535Z AUTO 08006KT 10SM CLR 13/05 A3033 RMK AO2 T01340052
KOEB 221515Z AUTO 06006KT 10SM SCT025 12/05 A3034 RMK AO2 T01230047
KOEB 221455Z AUTO 07007KT 10SM CLR 12/05 A3034 RMK AO2 T01230051
KOEB 221435Z AUTO 05011KT 10SM CLR 12/05 A3034 RMK AO2 T01200050
KOEB 221415Z AUTO 07009KT 10SM CLR 12/05 A3034 RMK AO2 T01160047
KOEB 221355Z AUTO 05008KT 10SM CLR 12/05 A3034 RMK AO2 T01170054
KOEB 221335Z AUTO 05007KT 10SM CLR 11/05 A3033 RMK AO2 T01100051
KOEB 221315Z AUTO 05009KT 10SM CLR 11/05 A3033 RMK AO2 T01080053
KOEB 221255Z AUTO 05006KT 10SM CLR 11/05 A3033 RMK AO2 T01050053
KOEB 221235Z AUTO 05005KT 10SM CLR 11/06 A3033 RMK AO2 T01050055
KOEB 221215Z AUTO 03007KT 10SM CLR 10/05 A3032 RMK AO2 T01030052
KOEB 221155Z AUTO 03007KT 10SM CLR 10/05 A3031 RMK AO2 T01020051 10136 20102
KOEB 221135Z AUTO 03009KT 10SM CLR 11/05 A3031 RMK AO2 T01050048
KOEB 221115Z AUTO 01008KT 10SM CLR 11/05 A3030 RMK AO2 T01050046
KOEB 221055Z AUTO 01007KT 10SM CLR 11/05 A3029 RMK AO2 T01060045
KOEB 221035Z AUTO 02007KT 10SM CLR 11/05 A3029 RMK AO2 T01060046
KOEB 221015Z AUTO 02005KT 10SM CLR 11/05 A3029 RMK AO2 T01060047
KOEB 220955Z AUTO 04005KT 10SM CLR 11/05 A3029 RMK AO2 T01060047
KOEB 220935Z AUTO 03006KT 10SM CLR 11/05 A3029 RMK AO2 T01090045
KOEB 220915Z AUTO 03006G09KT 10SM CLR 11/05 A3028 RMK AO2 T01110046
KOEB 220855Z AUTO 03011G16KT 10SM CLR 11/05 A3027 RMK AO2 T01120048
KOEB 220835Z AUTO 01007KT 10SM CLR 11/05 A3027 RMK AO2 T01140053
KOEB 220815Z AUTO 36008KT 10SM CLR 12/05 A3026 RMK AO2 T01160053
KOEB 220755Z AUTO 01007KT 10SM CLR 12/05 A3026 RMK AO2 T01180051
KOEB 220735Z AUTO 01008KT 10SM CLR 12/05 A3026 RMK AO2 T01180053
KOEB 220715Z AUTO 35005KT 10SM CLR 12/05 A3025 RMK AO2 T01210052
KOEB 220655Z AUTO 36005KT 10SM CLR 12/05 A3025 RMK AO2 T01240052
KOEB 220635Z AUTO 01008KT 10SM CLR 13/05 A3024 RMK AO2 T01270054
KOEB 220615Z AUTO 36007KT 10SM CLR 13/05 A3023 RMK AO2 T01320053
KOEB 220555Z AUTO 35008KT 10SM CLR 14/07 A3022 RMK AO2 T01360066 10189 20135 402720135
KOEB 220535Z AUTO 34006KT 10SM CLR 14/07 A3021 RMK AO2 T01400067
KOEB 220515Z AUTO 34009KT 10SM CLR 14/07 A3021 RMK AO2 T01430068
KOEB 220455Z AUTO 34011G15KT 10SM SCT041 15/08 A3020 RMK AO2 T01500076
KOEB 220435Z AUTO 35007KT 10SM BKN041 15/09 A3019 RMK AO2 T01500092
KOEB 220415Z AUTO 33004KT 10SM SCT047 15/09 A3019 RMK AO2 T01470091
KOEB 220355Z AUTO 32004KT 10SM SCT047 15/09 A3019 RMK AO2 T01520091
KOEB 220335Z AUTO 32004KT 10SM SCT045 15/09 A3018 RMK AO2 T01530090
KOEB 220315Z AUTO 32005KT 10SM SCT045 16/09 A3018 RMK AO2 T01550090
KOEB 220255Z AUTO 30006KT 10SM SCT047 16/09 A3017 RMK AO2 T01570089
KOEB 220235Z AUTO 31005KT 10SM CLR 16/09 A3016 RMK AO2 T01580091
KOEB 220215Z AUTO 30004KT 10SM CLR 16/09 A3015 RMK AO2 T01610091
KOEB 220155Z AUTO 31006KT 10SM CLR 17/09 A3014 RMK AO2 T01650090
KOEB 220135Z AUTO 30008G14KT 10SM CLR 17/09 A3013 RMK AO2 T01680092
KOEB 220115Z AUTO 31008KT 10SM CLR 17/10 A3012 RMK AO2 T01700095
KOEB 220055Z AUTO 32008KT 10SM SCT043 17/09 A3011 RMK AO2 T01730093
KOEB 220035Z AUTO 31012G19KT 10SM SCT041 18/09 A3009 RMK AO2 T01780089
KOEB 220015Z AUTO 32013G19KT 10SM SCT029 BKN043 18/10 A3007 RMK AO2 T01820104
KOEB 212355Z AUTO 32009G18KT 10SM SCT031 SCT037 SCT043 19/10 A3005 RMK AO2 T01900103 10272 20190
KOEB 212335Z AUTO 31011G18KT 10SM SCT036 SCT045 BKN050 20/10 A3004 RMK AO2 T01970104
KOEB 212315Z AUTO 31011G21KT 10SM CLR 20/09 A3002 RMK AO2 T02040092
KOEB 212255Z AUTO 30012G19KT 10SM CLR 21/08 A3000 RMK AO2 T02130078
KOEB 212235Z AUTO 29015G22KT 10SM CLR 22/09 A2999 RMK AO2 T02190086
KOEB 212215Z AUTO 30010G23KT 10SM CLR 23/09 A2998 RMK AO2 T02280088
KOEB 212155Z AUTO 28016G24KT 10SM CLR 24/08 A2996 RMK AO2 T02350084
KOEB 212135Z AUTO 29017G25KT 10SM SCT050 24/11 A2995 RMK AO2 T02410109
KOEB 212115Z AUTO 29014G23KT 10SM SCT038 SCT047 SCT055 25/13 A2994 RMK AO2 T02470127
KOEB 212055Z AUTO 28014G21KT 10SM SCT045 BKN055 26/11 A2993 RMK AO2 T02590113
KOEB 212035Z AUTO 27019G26KT 10SM SCT042 BKN048 BKN065 26/13 A2992 RMK AO2 T02620125
KOEB 212015Z AUTO 27013G19KT 10SM SCT043 BKN060 26/14 A2991 RMK AO2 T02580135